createdAt,value
2022-11-08T00:00:06.288Z,26.13
2022-11-08T00:00:36.318Z,26.12
2022-11-08T00:01:06.344Z,26.15
2022-11-08T00:01:36.457Z,26.15
2022-11-08T00:02:06.614Z,26.13
2022-11-08T00:02:36.782Z,26.13
2022-11-08T00:03:06.759Z,26.15
2022-11-08T00:03:36.684Z,26.12
2022-11-08T00:04:06.712Z,26.12
2022-11-08T00:04:36.744Z,26.16
2022-11-08T00:05:06.774Z,26.13
2022-11-08T00:05:36.808Z,26.17
2022-11-08T00:06:06.845Z,26.13
2022-11-08T00:06:36.888Z,26.10
2022-11-08T00:07:06.914Z,26.13
2022-11-08T00:07:36.951Z,26.12
2022-11-08T00:08:06.981Z,26.12
2022-11-08T00:08:37.014Z,26.13
2022-11-08T00:09:07.049Z,26.13
2022-11-08T00:09:37.073Z,26.12
2022-11-08T00:10:07.109Z,26.13
2022-11-08T00:10:37.140Z,26.13
2022-11-08T00:11:07.180Z,26.12
2022-11-08T00:11:37.226Z,26.09
2022-11-08T00:12:07.266Z,26.12
2022-11-08T00:12:37.287Z,26.12
2022-11-08T00:13:07.319Z,26.10
2022-11-08T00:13:37.347Z,26.12
2022-11-08T00:14:07.378Z,26.10
2022-11-08T00:14:37.417Z,26.09
2022-11-08T00:15:07.449Z,26.07
2022-11-08T00:15:37.481Z,26.10
2022-11-08T00:16:07.536Z,26.09
2022-11-08T00:16:37.560Z,26.09
2022-11-08T00:17:07.624Z,26.07
2022-11-08T00:17:37.632Z,26.09
2022-11-08T00:18:07.662Z,26.07
2022-11-08T00:18:37.694Z,26.09
2022-11-08T00:19:07.730Z,26.09
2022-11-08T00:19:37.762Z,26.09
2022-11-08T00:20:07.796Z,26.09
2022-11-08T00:20:37.828Z,26.10
2022-11-08T00:21:07.884Z,26.07
2022-11-08T00:21:37.919Z,26.09
2022-11-08T00:22:07.952Z,26.07
2022-11-08T00:22:37.993Z,26.10
2022-11-08T00:23:08.027Z,26.09
2022-11-08T00:23:38.058Z,26.10
2022-11-08T00:24:08.055Z,26.09
2022-11-08T00:24:38.168Z,26.09
2022-11-08T00:25:08.159Z,26.09
2022-11-08T00:25:38.279Z,26.10
2022-11-08T00:26:08.420Z,26.09
2022-11-08T00:26:38.422Z,26.09
2022-11-08T00:27:08.544Z,26.09
2022-11-08T00:27:38.549Z,26.07
2022-11-08T00:28:08.664Z,26.06
2022-11-08T00:28:38.662Z,26.10
2022-11-08T00:29:08.780Z,26.10
2022-11-08T00:29:38.778Z,26.07
2022-11-08T00:30:08.897Z,26.07
2022-11-08T00:30:39.014Z,26.10
2022-11-08T00:31:09.026Z,26.07
2022-11-08T00:31:39.014Z,26.09
2022-11-08T00:32:09.010Z,26.09
2022-11-08T00:32:39.148Z,26.10
2022-11-08T00:33:09.242Z,26.10
2022-11-08T00:33:39.242Z,26.10
2022-11-08T00:34:09.278Z,26.09
2022-11-08T00:34:39.315Z,26.09
2022-11-08T00:35:09.363Z,26.07
2022-11-08T00:35:39.395Z,26.09
2022-11-08T00:36:09.462Z,26.10
2022-11-08T00:36:39.506Z,26.12
2022-11-08T00:37:09.532Z,26.09
2022-11-08T00:37:39.567Z,26.10
2022-11-08T00:38:09.600Z,26.09
2022-11-08T00:38:39.633Z,26.07
2022-11-08T00:39:09.663Z,26.09
2022-11-08T00:39:39.699Z,26.10
2022-11-08T00:40:09.732Z,26.09
2022-11-08T00:40:39.769Z,26.09
2022-11-08T00:41:09.795Z,26.09
2022-11-08T00:41:39.845Z,26.12
2022-11-08T00:42:09.881Z,26.09
2022-11-08T00:42:39.908Z,26.09
2022-11-08T00:43:09.945Z,26.09
2022-11-08T00:43:39.975Z,26.07
2022-11-08T00:44:10.003Z,26.06
2022-11-08T00:44:40.046Z,26.06
2022-11-08T00:45:10.063Z,26.09
2022-11-08T00:45:40.107Z,26.09
2022-11-08T00:46:10.151Z,26.09
2022-11-08T00:46:40.189Z,26.09
2022-11-08T00:47:10.229Z,26.09
2022-11-08T00:47:40.258Z,26.10
2022-11-08T00:48:10.310Z,26.09
2022-11-08T00:48:40.336Z,26.09
2022-11-08T00:49:10.349Z,26.07
2022-11-08T00:49:40.384Z,26.09
2022-11-08T00:50:10.416Z,26.09
2022-11-08T00:50:40.444Z,26.09
2022-11-08T00:51:10.501Z,26.07
2022-11-08T00:51:40.530Z,26.07
2022-11-08T00:52:10.566Z,26.09
2022-11-08T00:52:40.599Z,26.09
2022-11-08T00:53:10.632Z,26.10
2022-11-08T00:53:40.669Z,26.10
2022-11-08T00:54:10.705Z,26.09
2022-11-08T00:54:40.736Z,26.09
2022-11-08T00:55:10.773Z,26.09
2022-11-08T00:55:40.797Z,26.07
2022-11-08T00:56:10.862Z,26.06
2022-11-08T00:56:40.896Z,26.09
2022-11-08T00:57:10.927Z,26.07
2022-11-08T00:57:58.374Z,26.07
2022-11-08T00:58:11.007Z,26.07
2022-11-08T00:58:41.036Z,26.03
2022-11-08T00:59:11.072Z,26.05
2022-11-08T00:59:41.108Z,26.06
2022-11-08T01:00:11.136Z,26.07
2022-11-08T01:00:41.170Z,26.05
2022-11-08T01:01:11.279Z,26.06
2022-11-08T01:01:41.428Z,26.03
2022-11-08T01:02:11.395Z,26.07
2022-11-08T01:02:41.478Z,26.05
2022-11-08T01:03:11.411Z,26.07
2022-11-08T01:03:41.466Z,26.09
2022-11-08T01:04:11.479Z,26.06
2022-11-08T01:04:41.503Z,26.05
2022-11-08T01:05:11.547Z,26.09
2022-11-08T01:05:41.574Z,26.06
2022-11-08T01:06:11.632Z,26.06
2022-11-08T01:06:41.672Z,26.05
2022-11-08T01:07:11.709Z,26.07
2022-11-08T01:07:41.740Z,26.06
2022-11-08T01:08:11.773Z,26.06
2022-11-08T01:08:41.800Z,26.06
2022-11-08T01:09:11.828Z,26.05
2022-11-08T01:09:41.861Z,26.05
2022-11-08T01:10:11.896Z,26.07
2022-11-08T01:10:41.932Z,26.06
2022-11-08T01:11:11.982Z,26.05
2022-11-08T01:11:42.042Z,26.06
2022-11-08T01:12:12.077Z,26.05
2022-11-08T01:12:42.111Z,26.06
2022-11-08T01:13:12.137Z,26.05
2022-11-08T01:13:42.170Z,26.06
2022-11-08T01:14:12.194Z,26.05
2022-11-08T01:14:42.234Z,26.06
2022-11-08T01:15:12.347Z,26.07
2022-11-08T01:15:42.462Z,26.06
2022-11-08T01:16:12.523Z,26.09
2022-11-08T01:16:42.569Z,26.03
2022-11-08T01:17:12.606Z,26.05
2022-11-08T01:17:42.634Z,26.06
2022-11-08T01:18:12.662Z,26.07
2022-11-08T01:18:42.698Z,26.06
2022-11-08T01:19:12.753Z,26.06
2022-11-08T01:19:42.755Z,26.07
2022-11-08T01:20:12.792Z,26.06
2022-11-08T01:20:42.823Z,26.07
2022-11-08T01:21:12.855Z,26.07
2022-11-08T01:21:42.893Z,26.06
2022-11-08T01:22:12.928Z,26.07
2022-11-08T01:22:42.959Z,26.06
2022-11-08T01:23:13.000Z,26.05
2022-11-08T01:23:43.014Z,26.07
2022-11-08T01:24:13.015Z,26.09
2022-11-08T01:24:43.130Z,26.06
2022-11-08T01:25:13.248Z,26.06
2022-11-08T01:25:43.247Z,26.07
2022-11-08T01:26:13.746Z,26.07
2022-11-08T01:26:43.359Z,26.06
2022-11-08T01:27:13.356Z,26.07
2022-11-08T01:27:43.472Z,26.05
2022-11-08T01:28:13.479Z,26.05
2022-11-08T01:28:43.468Z,26.06
2022-11-08T01:29:13.581Z,26.06
2022-11-08T01:29:43.576Z,26.06
2022-11-08T01:30:13.574Z,26.03
2022-11-08T01:30:43.707Z,26.05
2022-11-08T01:31:13.715Z,26.03
2022-11-08T01:31:43.700Z,26.03
2022-11-08T01:32:13.707Z,26.02
2022-11-08T01:32:43.699Z,26.03
2022-11-08T01:33:13.820Z,26.03
2022-11-08T01:33:49.850Z,26.05
2022-11-08T01:34:13.878Z,26.06
2022-11-08T01:34:43.939Z,26.02
2022-11-08T01:35:13.955Z,26.05
2022-11-08T01:35:43.985Z,26.06
2022-11-08T01:36:14.038Z,26.05
2022-11-08T01:36:44.074Z,26.03
2022-11-08T01:37:14.109Z,26.03
2022-11-08T01:37:44.142Z,26.03
2022-11-08T01:38:14.235Z,26.05
2022-11-08T01:38:44.251Z,26.03
2022-11-08T01:39:14.276Z,26.03
2022-11-08T01:39:44.308Z,26.05
2022-11-08T01:40:14.347Z,26.05
2022-11-08T01:40:44.367Z,26.05
2022-11-08T01:41:14.517Z,26.06
2022-11-08T01:41:44.421Z,26.05
2022-11-08T01:42:14.449Z,26.05
2022-11-08T01:42:44.483Z,26.03
2022-11-08T01:43:14.515Z,26.00
2022-11-08T01:43:44.548Z,26.03
2022-11-08T01:44:14.579Z,26.00
2022-11-08T01:44:44.609Z,26.03
2022-11-08T01:45:14.643Z,26.00
2022-11-08T01:45:44.674Z,26.03
2022-11-08T01:46:14.754Z,25.99
2022-11-08T01:46:44.783Z,26.00
2022-11-08T01:47:14.817Z,26.02
2022-11-08T01:47:44.844Z,25.98
2022-11-08T01:48:15.250Z,25.99
2022-11-08T01:48:44.909Z,25.99
2022-11-08T01:49:14.943Z,25.96
2022-11-08T01:49:44.980Z,25.96
2022-11-08T01:50:15.040Z,25.96
2022-11-08T01:50:45.049Z,25.96
2022-11-08T01:51:15.094Z,25.96
2022-11-08T01:51:45.129Z,25.95
2022-11-08T01:52:15.159Z,25.95
2022-11-08T01:52:45.197Z,25.93
2022-11-08T01:53:15.222Z,25.93
2022-11-08T01:53:45.252Z,25.96
2022-11-08T01:54:15.289Z,25.95
2022-11-08T01:54:45.320Z,25.95
2022-11-08T01:55:15.352Z,25.95
2022-11-08T01:55:45.392Z,25.93
2022-11-08T01:56:15.463Z,25.95
2022-11-08T01:56:45.464Z,25.98
2022-11-08T01:57:15.499Z,25.95
2022-11-08T01:57:45.526Z,25.93
2022-11-08T01:58:15.918Z,25.95
2022-11-08T01:58:45.635Z,25.96
2022-11-08T01:59:15.670Z,25.95
2022-11-08T01:59:45.703Z,25.98
2022-11-08T02:00:15.734Z,25.99
2022-11-08T02:00:45.766Z,25.96
2022-11-08T02:01:15.853Z,26.00
2022-11-08T02:01:45.996Z,25.96
2022-11-08T02:02:16.014Z,25.96
2022-11-08T02:02:46.019Z,25.98
2022-11-08T02:03:16.061Z,25.99
2022-11-08T02:03:46.098Z,25.96
2022-11-08T02:04:16.131Z,25.99
2022-11-08T02:04:46.163Z,25.99
2022-11-08T02:05:16.195Z,25.99
2022-11-08T02:05:46.254Z,25.98
2022-11-08T02:06:16.293Z,25.98
2022-11-08T02:06:46.329Z,25.99
2022-11-08T02:07:16.365Z,25.98
2022-11-08T02:07:46.399Z,25.98
2022-11-08T02:08:16.729Z,25.98
2022-11-08T02:08:46.435Z,25.99
2022-11-08T02:09:16.462Z,25.99
2022-11-08T02:09:46.494Z,26.00
2022-11-08T02:10:16.527Z,25.99
2022-11-08T02:10:46.565Z,26.00
2022-11-08T02:11:16.598Z,26.00
2022-11-08T02:11:46.642Z,25.98
2022-11-08T02:12:16.673Z,26.02
2022-11-08T02:12:46.701Z,26.00
2022-11-08T02:13:16.735Z,25.98
2022-11-08T02:13:46.764Z,25.99
2022-11-08T02:14:16.799Z,26.00
2022-11-08T02:14:46.829Z,25.96
2022-11-08T02:15:16.863Z,25.95
2022-11-08T02:15:46.887Z,25.98
2022-11-08T02:16:16.923Z,25.96
2022-11-08T02:16:46.959Z,25.98
2022-11-08T02:17:16.990Z,25.96
2022-11-08T02:17:47.051Z,26.00
2022-11-08T02:18:17.612Z,26.02
2022-11-08T02:18:47.194Z,25.98
2022-11-08T02:19:17.229Z,25.99
2022-11-08T02:19:47.261Z,25.99
2022-11-08T02:20:17.289Z,26.02
2022-11-08T02:20:47.320Z,25.99
2022-11-08T02:21:17.376Z,25.99
2022-11-08T02:21:47.385Z,26.00
2022-11-08T02:22:17.428Z,26.02
2022-11-08T02:22:47.444Z,26.00
2022-11-08T02:23:17.481Z,26.02
2022-11-08T02:23:47.490Z,26.02
2022-11-08T02:24:17.603Z,26.00
2022-11-08T02:24:47.715Z,26.02
2022-11-08T02:25:17.834Z,26.02
2022-11-08T02:25:47.829Z,26.02
2022-11-08T02:26:17.835Z,26.02
2022-11-08T02:26:47.829Z,26.02
2022-11-08T02:27:17.947Z,26.02
2022-11-08T02:27:47.959Z,26.00
2022-11-08T02:28:18.414Z,26.02
2022-11-08T02:28:48.075Z,26.00
2022-11-08T02:29:18.074Z,26.02
2022-11-08T02:29:48.084Z,26.03
2022-11-08T02:30:18.079Z,26.03
2022-11-08T02:30:48.089Z,26.02
2022-11-08T02:31:18.078Z,26.05
2022-11-08T02:31:48.068Z,26.00
2022-11-08T02:32:18.067Z,26.03
2022-11-08T02:32:48.176Z,26.02
2022-11-08T02:33:18.176Z,26.03
2022-11-08T02:33:48.188Z,26.00
2022-11-08T02:34:18.220Z,26.02
2022-11-08T02:34:48.263Z,26.02
2022-11-08T02:35:18.294Z,26.03
2022-11-08T02:35:48.338Z,26.02
2022-11-08T02:36:18.370Z,26.03
2022-11-08T02:36:48.420Z,26.02
2022-11-08T02:37:18.442Z,26.02
2022-11-08T02:37:48.472Z,26.00
2022-11-08T02:38:18.845Z,25.99
2022-11-08T02:38:48.531Z,26.00
2022-11-08T02:39:18.562Z,26.02
2022-11-08T02:39:48.589Z,25.99
2022-11-08T02:40:18.628Z,26.02
2022-11-08T02:40:48.675Z,25.99
2022-11-08T02:41:18.704Z,26.00
2022-11-08T02:41:48.734Z,25.99
2022-11-08T02:42:18.770Z,25.96
2022-11-08T02:42:48.801Z,25.95
2022-11-08T02:43:18.839Z,25.96
2022-11-08T02:43:48.871Z,25.99
2022-11-08T02:44:18.899Z,25.98
2022-11-08T02:44:48.945Z,25.98
2022-11-08T02:45:18.972Z,25.98
2022-11-08T02:45:49.025Z,25.98
2022-11-08T02:46:19.055Z,25.95
2022-11-08T02:46:49.083Z,25.95
2022-11-08T02:47:19.114Z,25.96
2022-11-08T02:47:49.148Z,25.99
2022-11-08T02:48:19.731Z,25.98
2022-11-08T02:48:49.221Z,26.00
2022-11-08T02:49:19.256Z,25.98
2022-11-08T02:49:49.290Z,25.99
2022-11-08T02:50:19.317Z,25.99
2022-11-08T02:50:49.381Z,25.98
2022-11-08T02:51:19.405Z,26.00
2022-11-08T02:51:49.434Z,25.99
2022-11-08T02:52:19.494Z,25.99
2022-11-08T02:52:49.564Z,25.99
2022-11-08T02:53:19.594Z,25.98
2022-11-08T02:53:49.627Z,25.98
2022-11-08T02:54:19.654Z,25.99
2022-11-08T02:54:49.691Z,25.98
2022-11-08T02:55:19.724Z,25.98
2022-11-08T02:55:49.790Z,25.98
2022-11-08T02:56:19.828Z,25.98
2022-11-08T02:56:49.872Z,25.96
2022-11-08T02:57:19.900Z,25.95
2022-11-08T02:57:49.932Z,25.99
2022-11-08T02:58:20.533Z,26.00
2022-11-08T02:58:50.006Z,26.02
2022-11-08T02:59:20.028Z,25.98
2022-11-08T02:59:50.061Z,25.99
2022-11-08T03:00:20.105Z,25.98
2022-11-08T03:00:50.157Z,25.98
2022-11-08T03:01:20.220Z,25.99
2022-11-08T03:01:50.511Z,25.99
2022-11-08T03:02:20.429Z,25.99
2022-11-08T03:02:50.418Z,25.98
2022-11-08T03:03:20.467Z,25.96
2022-11-08T03:03:50.499Z,25.96
2022-11-08T03:04:20.532Z,25.99
2022-11-08T03:04:50.567Z,25.98
2022-11-08T03:05:20.597Z,25.98
2022-11-08T03:05:50.687Z,25.98
2022-11-08T03:06:20.716Z,25.99
2022-11-08T03:06:50.764Z,26.00
2022-11-08T03:07:24.690Z,25.99
2022-11-08T03:07:50.885Z,25.96
2022-11-08T03:08:21.379Z,25.98
2022-11-08T03:08:50.919Z,25.98
2022-11-08T03:09:20.948Z,25.95
2022-11-08T03:09:50.981Z,25.96
2022-11-08T03:10:21.013Z,25.95
2022-11-08T03:10:51.073Z,25.96
2022-11-08T03:11:21.105Z,25.98
2022-11-08T03:11:51.134Z,25.96
2022-11-08T03:12:21.177Z,25.95
2022-11-08T03:12:51.204Z,25.95
2022-11-08T03:13:21.238Z,25.96
2022-11-08T03:13:51.268Z,25.95
2022-11-08T03:14:21.303Z,25.95
2022-11-08T03:14:51.332Z,25.92
2022-11-08T03:15:21.364Z,25.96
2022-11-08T03:15:51.414Z,25.95
2022-11-08T03:16:21.449Z,25.96
2022-11-08T03:16:51.482Z,25.95
2022-11-08T03:17:21.523Z,25.95
2022-11-08T03:17:51.547Z,25.95
2022-11-08T03:18:21.582Z,25.96
2022-11-08T03:18:51.620Z,25.93
2022-11-08T03:19:21.649Z,25.98
2022-11-08T03:19:51.692Z,25.93
2022-11-08T03:20:21.733Z,25.95
2022-11-08T03:20:51.771Z,25.92
2022-11-08T03:21:21.810Z,25.95
2022-11-08T03:21:51.848Z,25.93
2022-11-08T03:22:21.876Z,25.93
2022-11-08T03:22:51.909Z,25.95
2022-11-08T03:23:21.965Z,25.93
2022-11-08T03:23:51.947Z,25.96
2022-11-08T03:24:22.079Z,25.93
2022-11-08T03:24:52.076Z,25.93
2022-11-08T03:25:22.077Z,25.92
2022-11-08T03:25:52.079Z,25.92
2022-11-08T03:26:22.097Z,25.93
2022-11-08T03:26:52.187Z,25.95
2022-11-08T03:27:22.307Z,25.92
2022-11-08T03:27:52.308Z,25.95
2022-11-08T03:28:23.258Z,25.95
2022-11-08T03:28:52.420Z,25.92
2022-11-08T03:29:22.539Z,25.95
2022-11-08T03:29:52.536Z,25.93
2022-11-08T03:30:22.533Z,25.93
2022-11-08T03:30:52.530Z,25.92
2022-11-08T03:31:22.532Z,25.93
2022-11-08T03:31:52.544Z,25.92
2022-11-08T03:32:22.536Z,25.93
2022-11-08T03:32:52.535Z,25.89
2022-11-08T03:33:22.528Z,25.91
2022-11-08T03:33:52.551Z,25.91
2022-11-08T03:34:22.580Z,25.91
2022-11-08T03:34:52.624Z,25.91
2022-11-08T03:35:22.648Z,25.92
2022-11-08T03:35:52.706Z,25.92
2022-11-08T03:36:22.750Z,25.91
2022-11-08T03:36:52.773Z,25.89
2022-11-08T03:37:22.805Z,25.89
2022-11-08T03:37:52.840Z,25.91
2022-11-08T03:38:22.869Z,25.92
2022-11-08T03:38:52.924Z,25.92
2022-11-08T03:39:22.939Z,25.91
2022-11-08T03:39:52.972Z,25.91
2022-11-08T03:40:23.006Z,25.92
2022-11-08T03:40:53.065Z,25.91
2022-11-08T03:41:23.095Z,25.93
2022-11-08T03:41:53.141Z,25.93
2022-11-08T03:42:23.176Z,25.93
2022-11-08T03:42:53.208Z,25.92
2022-11-08T03:43:23.242Z,25.95
2022-11-08T03:43:53.276Z,25.95
2022-11-08T03:44:23.305Z,25.93
2022-11-08T03:44:53.347Z,25.93
2022-11-08T03:45:23.383Z,25.93
2022-11-08T03:45:53.421Z,25.93
2022-11-08T03:46:23.451Z,25.92
2022-11-08T03:46:53.480Z,25.96
2022-11-08T03:47:23.521Z,25.93
2022-11-08T03:47:53.553Z,25.93
2022-11-08T03:48:23.599Z,25.95
2022-11-08T03:48:53.614Z,25.93
2022-11-08T03:49:23.650Z,25.93
2022-11-08T03:49:53.680Z,25.93
2022-11-08T03:50:23.721Z,25.92
2022-11-08T03:50:53.751Z,25.93
2022-11-08T03:51:23.791Z,25.95
2022-11-08T03:51:53.827Z,25.96
2022-11-08T03:52:23.855Z,25.93
2022-11-08T03:52:53.894Z,25.93
2022-11-08T03:53:23.927Z,25.91
2022-11-08T03:53:53.962Z,25.93
2022-11-08T03:54:24.016Z,25.91
2022-11-08T03:54:54.039Z,25.93
2022-11-08T03:55:24.074Z,25.96
2022-11-08T03:55:54.112Z,25.93
2022-11-08T03:56:24.141Z,25.95
2022-11-08T03:56:54.176Z,25.96
2022-11-08T03:57:24.208Z,25.96
2022-11-08T03:57:54.360Z,25.96
2022-11-08T03:58:24.261Z,25.95
2022-11-08T03:58:54.308Z,25.98
2022-11-08T03:59:24.336Z,25.96
2022-11-08T03:59:54.373Z,25.99
2022-11-08T04:00:24.403Z,26.00
2022-11-08T04:00:54.502Z,26.00
2022-11-08T04:01:24.588Z,26.00
2022-11-08T04:01:54.711Z,26.05
2022-11-08T04:02:24.649Z,26.02
2022-11-08T04:02:54.581Z,26.03
2022-11-08T04:03:24.610Z,26.03
2022-11-08T04:03:54.637Z,26.03
2022-11-08T04:04:24.670Z,26.05
2022-11-08T04:04:54.740Z,26.07
2022-11-08T04:05:24.769Z,26.07
2022-11-08T04:05:54.803Z,26.07
2022-11-08T04:06:24.839Z,26.09
2022-11-08T04:06:54.876Z,26.10
2022-11-08T04:07:24.910Z,26.12
2022-11-08T04:07:54.941Z,26.13
2022-11-08T04:08:24.969Z,26.09
2022-11-08T04:08:55.011Z,26.13
2022-11-08T04:09:25.038Z,26.13
2022-11-08T04:09:55.095Z,26.15
2022-11-08T04:10:25.106Z,26.15
2022-11-08T04:10:55.156Z,26.16
2022-11-08T04:11:25.188Z,26.15
2022-11-08T04:11:55.223Z,26.17
2022-11-08T04:12:25.248Z,26.19
2022-11-08T04:12:55.283Z,26.16
2022-11-08T04:13:25.312Z,26.19
2022-11-08T04:13:55.343Z,26.17
2022-11-08T04:14:25.378Z,26.19
2022-11-08T04:14:55.418Z,26.22
2022-11-08T04:15:25.460Z,26.20
2022-11-08T04:15:55.561Z,26.22
2022-11-08T04:16:25.637Z,26.22
2022-11-08T04:16:55.644Z,26.24
2022-11-08T04:17:25.678Z,26.23
2022-11-08T04:17:55.709Z,26.22
2022-11-08T04:18:25.750Z,26.24
2022-11-08T04:18:55.782Z,26.23
2022-11-08T04:19:25.812Z,26.26
2022-11-08T04:19:55.847Z,26.24
2022-11-08T04:20:25.901Z,26.26
2022-11-08T04:20:55.937Z,26.29
2022-11-08T04:21:25.964Z,26.26
2022-11-08T04:21:55.999Z,26.27
2022-11-08T04:22:26.038Z,26.27
2022-11-08T04:22:56.069Z,26.27
2022-11-08T04:23:26.102Z,26.29
2022-11-08T04:23:56.103Z,26.29
2022-11-08T04:24:26.221Z,26.26
2022-11-08T04:24:56.340Z,26.29
2022-11-08T04:25:28.984Z,26.30
2022-11-08T04:25:56.505Z,26.29
2022-11-08T04:26:26.496Z,26.30
2022-11-08T04:26:56.617Z,26.30
2022-11-08T04:27:26.608Z,26.29
2022-11-08T04:27:56.612Z,26.30
2022-11-08T04:28:26.727Z,26.32
2022-11-08T04:28:56.849Z,26.32
2022-11-08T04:29:26.844Z,26.30
2022-11-08T04:29:56.957Z,26.30
2022-11-08T04:30:26.981Z,26.30
2022-11-08T04:30:56.978Z,26.29
2022-11-08T04:31:27.097Z,26.30
2022-11-08T04:31:57.218Z,26.32
2022-11-08T04:32:27.216Z,26.29
2022-11-08T04:32:57.338Z,26.30
2022-11-08T04:33:27.328Z,26.32
2022-11-08T04:33:57.373Z,26.30
2022-11-08T04:34:27.400Z,26.30
2022-11-08T04:34:57.505Z,26.32
2022-11-08T04:35:27.561Z,26.33
2022-11-08T04:35:57.597Z,26.33
2022-11-08T04:36:27.625Z,26.34
2022-11-08T04:36:57.659Z,26.36
2022-11-08T04:37:27.683Z,26.33
2022-11-08T04:37:57.726Z,26.36
2022-11-08T04:38:27.758Z,26.34
2022-11-08T04:38:57.794Z,26.32
2022-11-08T04:39:27.815Z,26.34
2022-11-08T04:39:57.845Z,26.36
2022-11-08T04:40:27.880Z,26.34
2022-11-08T04:40:57.948Z,26.36
2022-11-08T04:41:27.959Z,26.34
2022-11-08T04:42:02.163Z,26.37
2022-11-08T04:42:28.011Z,26.36
2022-11-08T04:42:58.048Z,26.36
2022-11-08T04:43:28.081Z,26.36
2022-11-08T04:43:58.106Z,26.37
2022-11-08T04:44:28.134Z,26.36
2022-11-08T04:44:58.178Z,26.36
2022-11-08T04:45:28.205Z,26.36
2022-11-08T04:45:58.253Z,26.33
2022-11-08T04:46:28.296Z,26.34
2022-11-08T04:46:58.324Z,26.34
2022-11-08T04:47:28.355Z,26.34
2022-11-08T04:47:58.402Z,26.37
2022-11-08T04:48:28.428Z,26.37
2022-11-08T04:48:58.463Z,26.37
2022-11-08T04:49:28.501Z,26.37
2022-11-08T04:49:58.531Z,26.39
2022-11-08T04:50:28.563Z,26.40
2022-11-08T04:50:58.601Z,26.34
2022-11-08T04:51:28.631Z,26.34
2022-11-08T04:51:58.670Z,26.36
2022-11-08T04:52:28.703Z,26.37
2022-11-08T04:52:58.731Z,26.37
2022-11-08T04:53:28.771Z,26.36
2022-11-08T04:53:58.805Z,26.33
2022-11-08T04:54:28.833Z,26.33
2022-11-08T04:54:58.866Z,26.34
2022-11-08T04:55:28.895Z,26.34
2022-11-08T04:55:58.938Z,26.32
2022-11-08T04:56:28.990Z,26.33
2022-11-08T04:56:58.999Z,26.34
2022-11-08T04:57:29.032Z,26.34
2022-11-08T04:57:59.085Z,26.33
2022-11-08T04:58:29.102Z,26.32
2022-11-08T04:58:59.137Z,26.33
2022-11-08T04:59:29.169Z,26.30
2022-11-08T04:59:59.200Z,26.29
2022-11-08T05:00:29.243Z,26.30
2022-11-08T05:00:59.375Z,26.30
2022-11-08T05:01:29.571Z,26.29
2022-11-08T05:01:59.376Z,26.27
2022-11-08T05:02:29.512Z,26.29
2022-11-08T05:02:59.407Z,26.30
2022-11-08T05:03:29.436Z,26.30
2022-11-08T05:03:59.476Z,26.30
2022-11-08T05:04:29.504Z,26.32
2022-11-08T05:04:59.533Z,26.32
2022-11-08T05:05:29.560Z,26.33
2022-11-08T05:05:59.598Z,26.32
2022-11-08T05:06:29.638Z,26.33
2022-11-08T05:06:59.663Z,26.33
2022-11-08T05:07:29.689Z,26.33
2022-11-08T05:07:59.787Z,26.34
2022-11-08T05:08:29.807Z,26.34
2022-11-08T05:08:59.841Z,26.36
2022-11-08T05:09:29.876Z,26.39
2022-11-08T05:10:02.342Z,26.39
2022-11-08T05:10:29.915Z,26.39
2022-11-08T05:10:59.956Z,26.37
2022-11-08T05:11:30.010Z,26.37
2022-11-08T05:12:00.045Z,26.40
2022-11-08T05:12:30.049Z,26.40
2022-11-08T05:13:00.087Z,26.40
2022-11-08T05:13:30.120Z,26.43
2022-11-08T05:14:00.201Z,26.43
2022-11-08T05:14:30.227Z,26.43
2022-11-08T05:15:00.259Z,26.46
2022-11-08T05:15:30.291Z,26.43
2022-11-08T05:16:00.324Z,26.43
2022-11-08T05:16:30.358Z,26.47
2022-11-08T05:17:00.383Z,26.50
2022-11-08T05:17:30.421Z,26.47
2022-11-08T05:18:00.450Z,26.50
2022-11-08T05:18:30.478Z,26.47
2022-11-08T05:19:00.518Z,26.47
2022-11-08T05:19:30.548Z,26.53
2022-11-08T05:20:00.579Z,26.51
2022-11-08T05:20:30.616Z,26.53
2022-11-08T05:21:00.667Z,26.51
2022-11-08T05:21:30.697Z,26.54
2022-11-08T05:22:00.728Z,26.55
2022-11-08T05:22:30.784Z,26.53
2022-11-08T05:23:00.815Z,26.53
2022-11-08T05:23:30.849Z,26.51
2022-11-08T05:24:00.973Z,26.55
2022-11-08T05:24:30.971Z,26.55
2022-11-08T05:25:00.967Z,26.57
2022-11-08T05:25:30.991Z,26.55
2022-11-08T05:26:01.017Z,26.55
2022-11-08T05:26:31.012Z,26.55
2022-11-08T05:27:01.136Z,26.60
2022-11-08T05:27:31.144Z,26.58
2022-11-08T05:28:01.125Z,26.57
2022-11-08T05:28:31.111Z,26.57
2022-11-08T05:29:01.118Z,26.60
2022-11-08T05:29:31.107Z,26.57
2022-11-08T05:30:01.108Z,26.62
2022-11-08T05:30:31.101Z,26.61
2022-11-08T05:31:01.117Z,26.58
2022-11-08T05:31:31.102Z,26.61
2022-11-08T05:32:01.099Z,26.62
2022-11-08T05:32:31.223Z,26.62
2022-11-08T05:33:01.345Z,26.62
2022-11-08T05:33:31.350Z,26.62
2022-11-08T05:34:01.381Z,26.62
2022-11-08T05:34:31.416Z,26.65
2022-11-08T05:35:01.450Z,26.64
2022-11-08T05:35:31.477Z,26.65
2022-11-08T05:36:05.612Z,26.62
2022-11-08T05:36:31.561Z,26.65
2022-11-08T05:37:01.591Z,26.65
2022-11-08T05:37:31.626Z,26.67
2022-11-08T05:38:01.663Z,26.65
2022-11-08T05:38:31.700Z,26.65
2022-11-08T05:39:01.728Z,26.67
2022-11-08T05:39:32.374Z,26.65
2022-11-08T05:40:01.988Z,26.67
2022-11-08T05:40:33.461Z,26.65
2022-11-08T05:41:01.980Z,26.67
2022-11-08T05:41:32.011Z,26.68
2022-11-08T05:42:02.051Z,26.68
2022-11-08T05:42:32.079Z,26.68
2022-11-08T05:43:02.139Z,26.68
2022-11-08T05:43:32.173Z,26.67
2022-11-08T05:44:02.207Z,26.68
2022-11-08T05:44:32.300Z,26.68
2022-11-08T05:45:08.116Z,26.68
2022-11-08T05:45:32.375Z,26.70
2022-11-08T05:46:02.413Z,26.67
2022-11-08T05:46:32.443Z,26.68
2022-11-08T05:47:02.545Z,26.68
2022-11-08T05:47:32.571Z,26.70
2022-11-08T05:48:02.631Z,26.68
2022-11-08T05:48:32.713Z,26.70
2022-11-08T05:49:02.740Z,26.68
2022-11-08T05:49:32.774Z,26.70
2022-11-08T05:50:02.824Z,26.70
2022-11-08T05:50:32.920Z,26.68
2022-11-08T05:51:02.947Z,26.68
2022-11-08T05:51:32.981Z,26.70
2022-11-08T05:52:03.007Z,26.71
2022-11-08T05:52:33.035Z,26.70
2022-11-08T05:53:03.069Z,26.72
2022-11-08T05:53:33.104Z,26.70
2022-11-08T05:54:03.132Z,26.68
2022-11-08T05:54:33.167Z,26.72
2022-11-08T05:55:03.201Z,26.71
2022-11-08T05:55:33.230Z,26.70
2022-11-08T05:56:03.280Z,26.72
2022-11-08T05:56:33.616Z,26.68
2022-11-08T05:57:03.398Z,26.70
2022-11-08T05:57:33.435Z,26.68
2022-11-08T05:58:03.460Z,26.72
2022-11-08T05:58:33.517Z,26.70
2022-11-08T05:59:03.528Z,26.71
2022-11-08T05:59:33.562Z,26.68
2022-11-08T06:00:03.594Z,26.70
2022-11-08T06:00:33.629Z,26.67
2022-11-08T06:01:03.683Z,26.68
2022-11-08T06:01:33.740Z,26.67
2022-11-08T06:02:03.980Z,26.70
2022-11-08T06:02:33.934Z,26.67
2022-11-08T06:03:04.006Z,26.68
2022-11-08T06:03:33.994Z,26.65
2022-11-08T06:04:03.937Z,26.67
2022-11-08T06:04:33.970Z,26.65
2022-11-08T06:05:04.002Z,26.65
2022-11-08T06:05:34.037Z,26.64
2022-11-08T06:06:04.073Z,26.65
2022-11-08T06:06:34.114Z,26.65
2022-11-08T06:07:04.137Z,26.65
2022-11-08T06:07:34.170Z,26.62
2022-11-08T06:08:04.206Z,26.61
2022-11-08T06:08:34.235Z,26.64
2022-11-08T06:09:04.276Z,26.62
2022-11-08T06:09:34.306Z,26.64
2022-11-08T06:10:04.342Z,26.64
2022-11-08T06:10:34.378Z,26.64
2022-11-08T06:11:04.432Z,26.62
2022-11-08T06:11:34.470Z,26.60
2022-11-08T06:12:04.505Z,26.61
2022-11-08T06:12:34.540Z,26.61
2022-11-08T06:13:04.572Z,26.60
2022-11-08T06:13:34.608Z,26.58
2022-11-08T06:14:04.666Z,26.58
2022-11-08T06:14:34.677Z,26.60
2022-11-08T06:15:04.708Z,26.57
2022-11-08T06:15:34.748Z,26.60
2022-11-08T06:16:04.784Z,26.55
2022-11-08T06:16:34.824Z,26.54
2022-11-08T06:17:04.853Z,26.53
2022-11-08T06:17:34.889Z,26.55
2022-11-08T06:18:04.929Z,26.57
2022-11-08T06:18:34.958Z,26.54
2022-11-08T06:19:04.998Z,26.57
2022-11-08T06:19:35.033Z,26.54
2022-11-08T06:20:05.058Z,26.54
2022-11-08T06:20:35.095Z,26.55
2022-11-08T06:21:05.161Z,26.55
2022-11-08T06:21:35.215Z,26.58
2022-11-08T06:22:05.258Z,26.58
2022-11-08T06:22:35.292Z,26.57
2022-11-08T06:23:05.336Z,26.57
2022-11-08T06:23:35.352Z,26.55
2022-11-08T06:24:05.345Z,26.58
2022-11-08T06:24:35.345Z,26.58
2022-11-08T06:25:05.343Z,26.57
2022-11-08T06:25:35.332Z,26.57
2022-11-08T06:26:05.331Z,26.54
2022-11-08T06:26:35.329Z,26.55